createdAt,value
2022-09-16T00:00:43.507Z,99.9
2022-09-16T00:02:49.795Z,99.9
2022-09-16T00:04:52.928Z,99.9
2022-09-16T00:06:56.104Z,99.9
2022-09-16T00:08:59.202Z,99.9
2022-09-16T00:11:02.354Z,99.9
2022-09-16T00:13:05.503Z,99.9
2022-09-16T00:15:08.640Z,99.9
2022-09-16T00:17:14.990Z,99.9
2022-09-16T00:19:18.135Z,99.9
2022-09-16T00:21:21.264Z,99.9
2022-09-16T00:23:24.422Z,99.9
2022-09-16T00:25:27.529Z,99.9
2022-09-16T00:27:30.676Z,99.9
2022-09-16T00:29:33.813Z,99.9
2022-09-16T00:31:40.237Z,99.9
2022-09-16T00:33:43.331Z,99.9
2022-09-16T00:35:46.463Z,99.9
2022-09-16T00:38:16.332Z,99.9
2022-09-16T00:40:19.540Z,99.9
2022-09-16T00:42:22.593Z,99.9
2022-09-16T00:44:28.975Z,99.9
2022-09-16T00:46:32.164Z,99.9
2022-09-16T00:48:35.266Z,99.9
2022-09-16T00:50:38.418Z,99.9
2022-09-16T00:52:41.547Z,99.9
2022-09-16T00:54:44.720Z,99.9
2022-09-16T00:56:47.836Z,99.9
2022-09-16T00:58:54.202Z,99.9
2022-09-16T01:00:57.430Z,99.9
2022-09-16T01:03:00.507Z,99.9
2022-09-16T01:05:03.630Z,99.9
2022-09-16T01:07:06.755Z,99.9
2022-09-16T01:09:09.884Z,99.9
2022-09-16T01:11:13.025Z,99.9
2022-09-16T01:13:19.388Z,99.9
2022-09-16T01:15:22.514Z,99.9
2022-09-16T01:17:25.671Z,99.9
2022-09-16T01:19:28.799Z,99.9
2022-09-16T01:21:31.947Z,99.9
2022-09-16T01:23:35.077Z,99.9
2022-09-16T01:25:38.214Z,99.9
2022-09-16T01:27:46.178Z,99.9
2022-09-16T01:29:49.273Z,99.9
2022-09-16T01:31:52.396Z,99.9
2022-09-16T01:32:55.568Z,99.9
2022-09-16T01:39:05.000Z,99.9
2022-09-16T01:41:11.376Z,99.9
2022-09-16T01:43:14.518Z,99.9
2022-09-16T01:45:17.669Z,99.9
2022-09-16T01:47:20.794Z,99.9
2022-09-16T01:49:23.947Z,99.9
2022-09-16T01:51:27.068Z,99.9
2022-09-16T01:53:30.227Z,99.9
2022-09-16T01:55:36.568Z,99.9
2022-09-16T01:57:39.718Z,99.9
2022-09-16T01:59:42.856Z,99.9
2022-09-16T02:01:46.163Z,99.9
2022-09-16T02:03:49.137Z,99.9
2022-09-16T02:05:52.262Z,99.9
2022-09-16T02:07:55.384Z,99.9
2022-09-16T02:10:01.808Z,99.9
2022-09-16T02:12:04.934Z,99.9
2022-09-16T02:14:08.015Z,99.9
2022-09-16T02:16:11.243Z,99.9
2022-09-16T02:20:17.440Z,99.9
2022-09-16T02:24:27.929Z,99.9
2022-09-16T02:26:31.035Z,99.9
2022-09-16T02:28:34.168Z,99.9
2022-09-16T02:29:37.359Z,99.9
2022-09-16T02:31:40.553Z,99.9
2022-09-16T02:33:43.621Z,99.9
2022-09-16T02:35:46.762Z,99.9
2022-09-16T02:39:56.302Z,99.9
2022-09-16T02:41:59.410Z,99.9
2022-09-16T02:52:18.295Z,99.9
2022-09-16T02:54:21.446Z,99.9
2022-09-16T02:56:24.576Z,99.9
2022-09-16T02:58:27.710Z,99.9
2022-09-16T03:00:30.832Z,99.9
2022-09-16T03:02:34.024Z,99.9
2022-09-16T03:04:37.120Z,99.9
2022-09-16T03:06:43.477Z,99.9
2022-09-16T03:08:46.768Z,99.9
2022-09-16T03:14:56.020Z,99.9
2022-09-16T03:16:59.148Z,99.9
2022-09-16T03:19:02.290Z,99.9
2022-09-16T03:21:08.646Z,99.9
2022-09-16T03:23:11.787Z,99.9
2022-09-16T03:25:14.926Z,99.9
2022-09-16T03:26:18.095Z,99.9
2022-09-16T03:28:21.245Z,99.9
2022-09-16T03:30:24.378Z,99.9
2022-09-16T03:32:27.514Z,99.9
2022-09-16T03:34:33.880Z,99.9
2022-09-16T03:36:37.023Z,99.9
2022-09-16T03:38:40.132Z,99.9
2022-09-16T03:40:43.299Z,99.9
2022-09-16T03:42:46.412Z,99.9
2022-09-16T03:44:49.574Z,99.9
2022-09-16T03:46:52.688Z,99.9
2022-09-16T03:48:59.062Z,99.9
2022-09-16T03:53:05.365Z,99.9
2022-09-16T03:55:08.482Z,99.9
2022-09-16T03:57:11.599Z,99.9
2022-09-16T03:59:14.738Z,99.9
2022-09-16T04:01:17.943Z,99.9
2022-09-16T04:03:24.233Z,99.9
2022-09-16T04:09:33.655Z,99.9
2022-09-16T04:11:36.781Z,99.9
2022-09-16T04:13:39.929Z,99.9
2022-09-16T04:15:43.086Z,99.9
2022-09-16T04:17:49.446Z,99.9
2022-09-16T04:19:52.591Z,99.9
2022-09-16T04:21:55.729Z,99.9
2022-09-16T04:24:25.587Z,99.9
2022-09-16T04:26:28.719Z,99.9
2022-09-16T04:28:31.879Z,99.9
2022-09-16T04:30:38.254Z,99.9
2022-09-16T04:32:41.363Z,99.9
2022-09-16T04:34:44.519Z,99.9
2022-09-16T04:36:47.620Z,99.9
2022-09-16T04:38:50.781Z,99.9
2022-09-16T04:40:53.917Z,99.9
2022-09-16T04:42:57.042Z,99.9
2022-09-16T04:45:03.417Z,99.9
2022-09-16T04:47:06.553Z,99.9
2022-09-16T04:49:09.710Z,99.9
2022-09-16T04:51:12.845Z,99.9
2022-09-16T04:53:15.993Z,99.9
2022-09-16T04:55:19.143Z,99.9
2022-09-16T04:57:22.275Z,99.9
2022-09-16T04:59:28.631Z,99.9
2022-09-16T05:01:31.818Z,99.9
2022-09-16T05:03:35.020Z,99.9
2022-09-16T05:05:37.999Z,99.9
2022-09-16T05:07:41.157Z,99.9
2022-09-16T05:09:44.273Z,99.9
2022-09-16T05:11:47.407Z,99.9
2022-09-16T05:13:53.744Z,99.9
2022-09-16T05:15:56.895Z,99.9
2022-09-16T05:17:59.987Z,99.9
2022-09-16T05:19:03.209Z,99.9
2022-09-16T05:21:06.299Z,99.9
2022-09-16T05:27:18.911Z,99.9
2022-09-16T05:29:22.053Z,99.9
2022-09-16T05:31:25.224Z,99.9
2022-09-16T05:33:28.322Z,99.9
2022-09-16T05:35:31.431Z,99.9
2022-09-16T05:37:34.578Z,99.9
2022-09-16T05:39:37.699Z,99.9
2022-09-16T05:41:44.040Z,99.9
2022-09-16T05:43:47.146Z,99.9
2022-09-16T05:45:50.382Z,99.9
2022-09-16T05:47:53.389Z,99.9
2022-09-16T05:49:56.525Z,99.9
2022-09-16T05:51:59.653Z,99.9
2022-09-16T05:54:02.797Z,99.9
2022-09-16T06:08:27.921Z,99.9
2022-09-16T06:12:37.391Z,99.9
2022-09-16T06:14:40.518Z,99.9
2022-09-16T06:17:46.798Z,99.9
2022-09-16T06:19:49.945Z,99.9
2022-09-16T06:21:53.056Z,99.9
2022-09-16T06:23:59.409Z,99.9
2022-09-16T06:28:05.684Z,99.9
2022-09-16T06:32:11.925Z,99.9
2022-09-16T06:34:15.047Z,99.9
2022-09-16T06:36:18.157Z,99.9
2022-09-16T06:38:24.504Z,99.9
2022-09-16T06:40:27.732Z,99.9
2022-09-16T06:42:30.759Z,99.9
2022-09-16T06:46:37.047Z,99.9
2022-09-16T06:48:40.165Z,99.9
2022-09-16T06:50:43.290Z,99.9
2022-09-16T06:52:49.628Z,99.9
2022-09-16T06:54:52.755Z,99.9
2022-09-16T06:56:55.889Z,99.9
2022-09-16T06:58:59.020Z,99.9
2022-09-16T07:01:02.267Z,99.9
2022-09-16T07:05:08.433Z,99.9
2022-09-16T07:07:14.780Z,99.9
2022-09-16T07:09:17.894Z,99.9
2022-09-16T07:11:21.016Z,99.9
2022-09-16T07:24:47.494Z,99.9
2022-09-16T07:26:50.521Z,99.9
2022-09-16T07:28:53.663Z,99.9
2022-09-16T07:30:56.657Z,99.9
2022-09-16T07:32:59.662Z,99.9
2022-09-16T07:35:05.801Z,99.9
2022-09-16T07:37:08.929Z,99.9
2022-09-16T07:39:11.990Z,99.9
2022-09-16T07:41:15.008Z,99.9
2022-09-16T07:43:18.068Z,99.9
2022-09-16T07:45:21.085Z,99.9
2022-09-16T07:47:24.115Z,99.9
2022-09-16T07:49:30.296Z,99.9
2022-09-16T07:51:33.758Z,99.9
2022-09-16T07:53:36.790Z,99.9
2022-09-16T07:55:39.826Z,99.9
2022-09-16T07:57:42.851Z,99.9
2022-09-16T07:59:45.881Z,99.9
2022-09-16T08:01:48.969Z,99.9
2022-09-16T08:03:55.118Z,99.9
2022-09-16T08:05:58.035Z,99.9
2022-09-16T08:08:01.069Z,99.9
2022-09-16T08:10:25.765Z,99.9
2022-09-16T08:12:27.757Z,99.9
2022-09-16T08:14:30.782Z,99.9
2022-09-16T08:16:36.963Z,99.9
2022-09-16T08:18:39.928Z,99.9
2022-09-16T08:20:42.951Z,99.9
2022-09-16T08:22:45.966Z,99.9
2022-09-16T08:24:48.962Z,99.9
2022-09-16T08:26:52.041Z,99.9
2022-09-16T08:29:08.470Z,99.9
2022-09-16T08:31:01.101Z,99.9
2022-09-16T08:33:04.123Z,99.9
2022-09-16T08:35:07.114Z,99.9
2022-09-16T08:37:10.142Z,99.9
2022-09-16T08:39:13.155Z,99.9
2022-09-16T08:41:16.162Z,99.9
2022-09-16T08:43:19.188Z,99.9
2022-09-16T08:47:28.292Z,99.9
2022-09-16T08:49:31.299Z,99.9
2022-09-16T08:51:34.331Z,99.9
2022-09-16T08:53:37.317Z,99.9
2022-09-16T08:55:40.316Z,99.9
2022-09-16T08:57:43.382Z,99.9
2022-09-16T08:59:49.419Z,99.9
2022-09-16T09:01:52.820Z,99.9
2022-09-16T09:03:55.467Z,99.9
2022-09-16T09:04:58.418Z,99.9
2022-09-16T09:07:01.444Z,99.9
2022-09-16T09:09:04.439Z,99.9
2022-09-16T09:11:07.422Z,99.9
2022-09-16T09:15:16.517Z,99.9
2022-09-16T09:17:19.523Z,99.9
2022-09-16T09:19:22.507Z,99.9
2022-09-16T09:21:27.412Z,99.9
2022-09-16T09:25:31.442Z,99.9
2022-09-16T09:27:37.586Z,99.9
2022-09-16T09:29:40.606Z,99.9
2022-09-16T09:31:43.641Z,99.9
2022-09-16T09:37:52.561Z,99.9
2022-09-16T09:42:01.673Z,99.9
2022-09-16T09:44:04.688Z,99.9
2022-09-16T09:46:07.715Z,99.9
2022-09-16T09:48:10.707Z,99.9
2022-09-16T09:50:13.715Z,99.9
2022-09-16T09:52:16.719Z,99.9
2022-09-16T09:54:19.760Z,99.9
2022-09-16T09:56:25.834Z,99.9
2022-09-16T09:58:28.890Z,99.9
2022-09-16T10:00:31.876Z,99.9
2022-09-16T10:01:34.971Z,99.9
2022-09-16T10:05:40.976Z,99.9
2022-09-16T10:07:43.969Z,99.9
2022-09-16T10:09:50.107Z,99.9
2022-09-16T10:11:53.076Z,99.9
2022-09-16T10:13:56.090Z,99.9
2022-09-16T10:15:59.186Z,99.9
2022-09-16T10:20:05.165Z,99.9
2022-09-16T10:22:08.143Z,99.9
2022-09-16T10:24:14.304Z,99.9
2022-09-16T10:26:17.282Z,99.9
2022-09-16T10:28:20.288Z,99.9
2022-09-16T10:32:26.278Z,99.9
2022-09-16T10:36:32.264Z,99.9
2022-09-16T10:38:38.358Z,99.9
2022-09-16T10:40:41.366Z,99.9
2022-09-16T10:42:44.310Z,99.9
2022-09-16T10:44:47.277Z,99.9
2022-09-16T10:46:50.265Z,99.9
2022-09-16T10:48:53.218Z,99.9
2022-09-16T10:50:56.204Z,99.9
2022-09-16T10:53:02.308Z,99.9
2022-09-16T10:55:05.230Z,99.9
2022-09-16T10:57:08.204Z,99.9
2022-09-16T10:58:11.250Z,99.9
2022-09-16T11:00:14.305Z,99.9
2022-09-16T11:02:17.557Z,99.9
2022-09-16T11:04:20.201Z,99.9
2022-09-16T11:10:32.253Z,99.9
2022-09-16T11:12:35.278Z,99.9
2022-09-16T11:14:38.282Z,99.9
2022-09-16T11:16:41.276Z,99.9
2022-09-16T11:18:44.222Z,99.9
2022-09-16T11:20:50.328Z,99.9
2022-09-16T11:22:53.358Z,99.9
2022-09-16T11:24:56.327Z,99.9
2022-09-16T11:26:59.350Z,99.9
2022-09-16T11:29:02.349Z,99.9
2022-09-16T11:31:05.386Z,99.9
2022-09-16T11:33:08.494Z,99.9
2022-09-16T11:35:14.458Z,99.9
2022-09-16T11:37:17.430Z,99.9
2022-09-16T11:39:20.409Z,99.9
2022-09-16T11:41:23.424Z,99.9
2022-09-16T11:43:26.369Z,99.8
2022-09-16T11:45:29.386Z,93.3
2022-09-16T11:47:34.215Z,93.8
2022-09-16T11:49:38.382Z,92.4
2022-09-16T11:51:41.297Z,92.8
2022-09-16T11:53:45.565Z,87.9
2022-09-16T11:56:13.534Z,76.8
2022-09-16T11:58:16.554Z,76.7
2022-09-16T12:00:19.485Z,76.7
2022-09-16T12:02:25.621Z,78.4
2022-09-16T12:04:28.431Z,75.6
2022-09-16T12:06:31.386Z,76.5
2022-09-16T12:08:34.300Z,70.4
2022-09-16T12:10:37.230Z,80.3
2022-09-16T12:12:40.106Z,90.6
2022-09-16T12:14:43.053Z,63.5
2022-09-16T12:16:49.104Z,57.3
2022-09-16T12:18:51.995Z,58
2022-09-16T12:20:54.915Z,62
2022-09-16T12:22:57.768Z,59.2
2022-09-16T12:25:00.703Z,63.9
2022-09-16T12:27:03.562Z,72.8
2022-09-16T12:29:06.505Z,87.1
2022-09-16T12:31:12.580Z,98.4
2022-09-16T12:33:15.424Z,98.7
2022-09-16T12:35:18.427Z,99.1
2022-09-16T12:37:21.275Z,99.4
2022-09-16T12:39:24.225Z,99.7
2022-09-16T12:41:27.149Z,99.7
2022-09-16T12:43:30.154Z,99.9
2022-09-16T12:45:36.249Z,99.9
2022-09-16T12:47:39.269Z,99.9
2022-09-16T12:49:42.257Z,99.9
2022-09-16T12:52:48.285Z,99.9
2022-09-16T12:55:07.124Z,99.9
2022-09-16T12:56:54.263Z,99.9
2022-09-16T12:59:00.366Z,99.9
2022-09-16T13:01:03.328Z,99.9
2022-09-16T13:05:09.284Z,99.9
2022-09-16T13:07:12.240Z,99.9
2022-09-16T13:17:31.620Z,99.9
2022-09-16T13:23:40.356Z,99.9
2022-09-16T13:27:49.343Z,99.9
2022-09-16T13:33:58.133Z,99.9
2022-09-16T13:38:04.051Z,99.9
2022-09-16T13:40:07.097Z,99.9
2022-09-16T13:42:13.130Z,99.9
2022-09-16T13:46:19.190Z,99.9
2022-09-16T13:47:22.201Z,99.9
2022-09-16T13:49:25.185Z,99.9
2022-09-16T13:51:29.455Z,99.9
2022-09-16T13:53:31.202Z,99.9
2022-09-16T13:57:40.284Z,99.9
2022-09-16T13:59:43.291Z,99.9
2022-09-16T14:03:49.226Z,99.9
2022-09-16T14:07:55.145Z,80.3
2022-09-16T14:14:08.296Z,99.8
2022-09-16T14:16:10.093Z,99.8
2022-09-16T14:18:12.993Z,99.8
2022-09-16T14:20:15.940Z,99.8
2022-09-16T14:22:18.886Z,99.9
2022-09-16T14:24:24.944Z,99.9
2022-09-16T14:26:27.941Z,99.9
2022-09-16T14:28:32.303Z,99.9
2022-09-16T14:32:36.865Z,99.9
2022-09-16T14:34:39.840Z,99.9
2022-09-16T14:36:42.826Z,99.9
2022-09-16T14:38:48.918Z,99.9
2022-09-16T14:40:51.886Z,99.9
2022-09-16T14:42:54.844Z,99.9
2022-09-16T14:43:57.895Z,99.9
2022-09-16T14:46:00.924Z,99.9
2022-09-16T14:50:06.820Z,99.9
2022-09-16T14:52:12.917Z,99.6
2022-09-16T14:54:15.974Z,99.6
2022-09-16T14:56:18.778Z,99.3
2022-09-16T14:58:21.703Z,91.8
2022-09-16T15:00:24.643Z,93.1
2022-09-16T15:02:27.662Z,98
2022-09-16T15:04:30.479Z,98.4
2022-09-16T15:06:36.548Z,84
2022-09-16T15:08:41.629Z,98.2
2022-09-16T15:10:51.986Z,88.2
2022-09-16T15:12:45.278Z,80.1
2022-09-16T15:14:48.161Z,69.7
2022-09-16T15:18:53.974Z,60.2
2022-09-16T15:20:59.993Z,63.3
2022-09-16T15:23:02.876Z,59.9
2022-09-16T15:25:05.780Z,54.8
2022-09-16T15:27:08.669Z,54.5
2022-09-16T15:31:14.509Z,77.8
2022-09-16T15:44:01.487Z,99.8
2022-09-16T15:46:04.453Z,99.9
2022-09-16T15:48:10.498Z,99.9
2022-09-16T15:50:13.504Z,99.9
2022-09-16T15:52:16.458Z,99.9
2022-09-16T15:54:19.472Z,99.9
2022-09-16T15:56:22.483Z,99.9
2022-09-16T15:58:25.453Z,99.8
2022-09-16T16:00:28.458Z,93.8
2022-09-16T16:02:34.660Z,96.3
2022-09-16T16:04:37.599Z,87.4
2022-09-16T16:06:40.613Z,99.6
2022-09-16T16:08:43.613Z,99.8
2022-09-16T16:12:49.597Z,99.8
2022-09-16T16:14:52.620Z,99.8
2022-09-16T16:19:01.755Z,99.9
2022-09-16T16:21:04.756Z,99.9
2022-09-16T16:25:10.773Z,99.9
2022-09-16T16:27:13.807Z,99.9
2022-09-16T16:29:16.833Z,99.9
2022-09-16T16:31:23.115Z,99.9
2022-09-16T16:33:26.004Z,99.9
2022-09-16T16:35:29.036Z,99.9
2022-09-16T16:36:32.112Z,99.9
2022-09-16T16:38:35.132Z,99.9
2022-09-16T16:40:38.238Z,99.9
2022-09-16T16:42:41.188Z,99.9
2022-09-16T16:44:47.333Z,99.9
2022-09-16T16:46:50.368Z,99.9
2022-09-16T16:48:53.406Z,99.9
2022-09-16T16:50:56.448Z,99.9
2022-09-16T16:52:59.479Z,99.9
2022-09-16T16:55:02.528Z,99.9
2022-09-16T16:57:05.573Z,99.9
2022-09-16T16:59:11.690Z,99.9
2022-09-16T17:01:14.778Z,99.9
2022-09-16T17:13:36.304Z,99.9
2022-09-16T17:19:45.748Z,99.9
2022-09-16T17:23:52.057Z,99.9
2022-09-16T17:25:55.205Z,99.9
2022-09-16T17:30:04.715Z,99.9
2022-09-16T17:32:07.862Z,99.9
2022-09-16T17:33:11.073Z,99.9
2022-09-16T17:35:14.203Z,99.9
2022-09-16T17:37:17.337Z,99.9
2022-09-16T17:39:20.506Z,99.9
2022-09-16T17:41:26.850Z,99.9
2022-09-16T17:43:32.312Z,99.9
2022-09-16T17:45:33.293Z,99.9
2022-09-16T17:47:36.306Z,99.9
2022-09-16T17:49:39.485Z,99.9
2022-09-16T17:51:42.616Z,99.9
2022-09-16T17:53:45.776Z,99.9
2022-09-16T17:55:52.118Z,99.9
2022-09-16T17:57:55.306Z,99.9
2022-09-16T17:59:58.442Z,99.9
2022-09-16T18:02:01.580Z,99.9
2022-09-16T18:04:04.851Z,99.9
2022-09-16T18:06:07.879Z,99.9
2022-09-16T18:10:17.386Z,99.9
2022-09-16T18:12:20.543Z,99.9
2022-09-16T18:16:26.844Z,99.9
2022-09-16T18:18:29.967Z,99.9
2022-09-16T18:20:33.114Z,99.9
2022-09-16T18:22:36.285Z,99.9
2022-09-16T18:24:42.622Z,99.9
2022-09-16T18:26:45.782Z,99.9
2022-09-16T18:29:07.986Z,99.9
2022-09-16T18:29:52.121Z,99.9
2022-09-16T18:31:55.279Z,99.9
2022-09-16T18:33:58.423Z,99.9
2022-09-16T18:36:01.572Z,99.9
2022-09-16T18:38:07.936Z,99.9
2022-09-16T18:40:11.128Z,99.9
2022-09-16T18:42:14.240Z,99.9
2022-09-16T18:44:17.382Z,99.9
2022-09-16T18:48:23.675Z,99.9
2022-09-16T18:50:26.800Z,99.9
2022-09-16T18:52:33.158Z,99.9
2022-09-16T18:54:36.304Z,99.9
2022-09-16T18:56:39.471Z,99.9
2022-09-16T18:58:50.972Z,99.9
2022-09-16T19:00:45.713Z,99.9
2022-09-16T19:02:48.912Z,99.9
2022-09-16T19:04:52.033Z,99.9
2022-09-16T19:06:58.371Z,99.9
2022-09-16T19:09:01.530Z,99.9
2022-09-16T19:11:04.667Z,99.9
2022-09-16T19:13:09.401Z,99.9
2022-09-16T19:15:12.494Z,99.9
2022-09-16T19:17:15.659Z,99.9
2022-09-16T19:19:18.784Z,99.9
2022-09-16T19:21:25.159Z,99.9
2022-09-16T19:23:28.297Z,99.9
2022-09-16T19:25:31.466Z,99.9
2022-09-16T19:28:01.255Z,99.9
2022-09-16T19:30:04.414Z,99.9
2022-09-16T19:32:07.618Z,99.9
2022-09-16T19:34:13.910Z,99.9
2022-09-16T19:36:17.059Z,99.9
2022-09-16T19:38:20.221Z,99.9
2022-09-16T19:40:23.407Z,99.9
2022-09-16T19:42:26.511Z,99.9
2022-09-16T19:44:29.654Z,99.9
2022-09-16T19:46:32.815Z,99.9
2022-09-16T19:48:39.176Z,99.9
2022-09-16T19:50:45.710Z,99.9
2022-09-16T19:52:45.502Z,99.9
2022-09-16T19:54:48.602Z,99.9
2022-09-16T19:56:51.758Z,99.9
2022-09-16T19:58:54.889Z,99.9
2022-09-16T20:00:58.037Z,99.9
2022-09-16T20:03:04.440Z,99.9
2022-09-16T20:05:09.053Z,99.9
2022-09-16T20:07:10.694Z,99.9
2022-09-16T20:09:13.838Z,99.9
2022-09-16T20:11:16.983Z,99.9
2022-09-16T20:13:20.152Z,99.9
2022-09-16T20:15:23.285Z,99.9
2022-09-16T20:17:29.636Z,99.9
2022-09-16T20:19:32.779Z,99.9
2022-09-16T20:21:36.031Z,99.9
2022-09-16T20:22:39.136Z,99.9
2022-09-16T20:24:42.264Z,99.9
2022-09-16T20:26:45.409Z,99.9
2022-09-16T20:28:48.574Z,99.9
2022-09-16T20:30:54.933Z,99.9
2022-09-16T20:32:58.089Z,99.9
2022-09-16T20:35:01.224Z,99.9
2022-09-16T20:37:04.389Z,99.9
2022-09-16T20:39:07.517Z,99.9
2022-09-16T20:41:10.676Z,99.9
2022-09-16T20:43:13.826Z,99.9
2022-09-16T20:45:20.185Z,99.9
2022-09-16T20:47:23.314Z,99.9
2022-09-16T20:49:26.472Z,99.9
2022-09-16T20:51:29.608Z,99.9
2022-09-16T20:53:32.752Z,99.9
2022-09-16T20:55:36.177Z,99.9
2022-09-16T20:57:39.077Z,99.9
2022-09-16T20:59:45.435Z,99.9
2022-09-16T21:01:48.773Z,99.9
2022-09-16T21:05:54.875Z,99.9
2022-09-16T21:07:58.028Z,99.9
2022-09-16T21:10:01.153Z,99.9
2022-09-16T21:12:04.300Z,99.9
2022-09-16T21:14:10.660Z,99.9
2022-09-16T21:16:13.880Z,99.9
2022-09-16T21:18:16.947Z,99.9
2022-09-16T21:23:26.446Z,99.9
2022-09-16T21:25:29.573Z,99.9
2022-09-16T21:27:35.930Z,99.9
2022-09-16T21:29:39.081Z,99.9
2022-09-16T21:31:42.379Z,99.9
2022-09-16T21:33:45.384Z,99.9
2022-09-16T21:39:54.820Z,99.9
2022-09-16T21:42:01.157Z,99.9
2022-09-16T21:44:04.300Z,99.9
2022-09-16T21:50:13.733Z,99.9
2022-09-16T21:52:16.887Z,99.9
2022-09-16T21:54:20.677Z,99.9
2022-09-16T21:56:26.411Z,99.9
2022-09-16T21:58:29.558Z,99.9
2022-09-16T22:04:38.968Z,99.9
2022-09-16T22:08:48.778Z,99.9
2022-09-16T22:10:51.633Z,99.9
2022-09-16T22:12:54.768Z,99.9
2022-09-16T22:14:57.886Z,99.9
2022-09-16T22:16:01.143Z,99.9
2022-09-16T22:18:04.238Z,99.9
2022-09-16T22:20:07.390Z,99.9
2022-09-16T22:22:10.492Z,99.9
2022-09-16T22:24:16.846Z,99.9
2022-09-16T22:26:19.991Z,99.9
2022-09-16T22:28:23.123Z,99.9
2022-09-16T22:30:26.259Z,99.9
2022-09-16T22:32:29.409Z,99.9
2022-09-16T22:34:32.550Z,99.9
2022-09-16T22:36:35.672Z,99.9
2022-09-16T22:38:42.053Z,99.9
2022-09-16T22:40:45.182Z,99.9
2022-09-16T22:42:48.322Z,99.9
2022-09-16T22:44:51.468Z,99.9
2022-09-16T22:46:54.694Z,99.9
2022-09-16T22:48:57.869Z,99.9
2022-09-16T22:51:00.882Z,99.9
2022-09-16T22:53:07.247Z,99.9
2022-09-16T22:55:10.403Z,99.9
2022-09-16T22:59:16.711Z,99.9
2022-09-16T23:01:20.018Z,99.9
2022-09-16T23:03:22.974Z,99.9
2022-09-16T23:05:26.124Z,99.9
2022-09-16T23:07:32.497Z,99.9
2022-09-16T23:09:35.630Z,99.9
2022-09-16T23:11:38.778Z,99.9
2022-09-16T23:14:00.648Z,99.9
2022-09-16T23:16:03.860Z,99.9
2022-09-16T23:18:06.913Z,99.9
2022-09-16T23:20:13.303Z,99.9
2022-09-16T23:22:16.433Z,99.9
2022-09-16T23:24:19.585Z,99.9
2022-09-16T23:26:22.716Z,99.9
2022-09-16T23:28:25.861Z,99.9
2022-09-16T23:30:28.979Z,99.9
2022-09-16T23:32:32.151Z,99.9
2022-09-16T23:34:38.498Z,99.9
2022-09-16T23:38:44.792Z,99.9
2022-09-16T23:44:54.218Z,99.9
2022-09-16T23:46:57.364Z,99.9
2022-09-16T23:49:03.668Z,99.9
2022-09-16T23:51:06.776Z,99.9
2022-09-16T23:55:13.050Z,99.9
2022-09-16T23:57:16.187Z,99.9
2022-09-16T23:59:19.295Z,99.9
